Terminal Aerodrome Forecast
Issued by NWS

Home | Current Version | Previous Version | Text Only | Print | Product List | Glossary On
Versions: 1 2 3 4 5 6 7 8 9 10 11 12 13 14 15
000
FTUS43 KABR 180500
TAFATY
TAF
KATY 180520Z 1806/1906 VRB05KT P6SM BKN200
     FM181500 11007KT P6SM BKN090
     FM182200 10010KT P6SM VCSH BKN040
     FM190000 11008KT 6SM -SHRA OVC015=

USA.gov is the U.S. government's official web portal to all federal, state and local government web resources and services.